sensor_id;sensor_type;location;lat;lon;timestamp;temperature;humidity
66598;DHT22;57424;53.128;6.406;2022-11-13T00:01:14;20.30;72.50
66598;DHT22;57424;53.128;6.406;2022-11-13T00:03:40;20.30;72.50
66598;DHT22;57424;53.128;6.406;2022-11-13T00:06:06;20.30;72.70
66598;DHT22;57424;53.128;6.406;2022-11-13T00:08:32;20.30;72.90
66598;DHT22;57424;53.128;6.406;2022-11-13T00:11:06;20.30;73.00
66598;DHT22;57424;53.128;6.406;2022-11-13T00:13:32;20.30;73.00
66598;DHT22;57424;53.128;6.406;2022-11-13T00:16:00;20.20;73.10
66598;DHT22;57424;53.128;6.406;2022-11-13T00:18:27;20.20;73.20
66598;DHT22;57424;53.128;6.406;2022-11-13T00:20:54;20.20;73.30
66598;DHT22;57424;53.128;6.406;2022-11-13T00:23:20;20.20;73.30
66598;DHT22;57424;53.128;6.406;2022-11-13T00:25:45;20.20;73.30
66598;DHT22;57424;53.128;6.406;2022-11-13T00:28:11;20.20;73.40
66598;DHT22;57424;53.128;6.406;2022-11-13T00:30:36;20.20;73.50
66598;DHT22;57424;53.128;6.406;2022-11-13T00:33:02;20.20;73.60
66598;DHT22;57424;53.128;6.406;2022-11-13T00:35:27;20.20;73.70
66598;DHT22;57424;53.128;6.406;2022-11-13T00:37:53;20.20;73.70
66598;DHT22;57424;53.128;6.406;2022-11-13T00:40:19;20.20;73.70
66598;DHT22;57424;53.128;6.406;2022-11-13T00:42:45;20.20;73.90
66598;DHT22;57424;53.128;6.406;2022-11-13T00:45:10;20.10;73.80
66598;DHT22;57424;53.128;6.406;2022-11-13T00:47:36;20.20;74.00
66598;DHT22;57424;53.128;6.406;2022-11-13T00:50:01;20.20;74.00
66598;DHT22;57424;53.128;6.406;2022-11-13T00:52:27;20.10;74.10
66598;DHT22;57424;53.128;6.406;2022-11-13T00:54:53;20.10;74.70
66598;DHT22;57424;53.128;6.406;2022-11-13T00:57:18;20.20;74.80
66598;DHT22;57424;53.128;6.406;2022-11-13T00:59:44;20.10;74.80
66598;DHT22;57424;53.128;6.406;2022-11-13T01:02:09;20.10;74.90
66598;DHT22;57424;53.128;6.406;2022-11-13T01:04:37;20.10;75.00
66598;DHT22;57424;53.128;6.406;2022-11-13T01:07:02;20.10;75.00
66598;DHT22;57424;53.128;6.406;2022-11-13T01:09:28;20.10;75.00
66598;DHT22;57424;53.128;6.406;2022-11-13T01:11:53;20.10;75.00
66598;DHT22;57424;53.128;6.406;2022-11-13T01:14:19;20.10;75.80
66598;DHT22;57424;53.128;6.406;2022-11-13T01:16:44;20.10;75.20
66598;DHT22;57424;53.128;6.406;2022-11-13T01:19:10;20.00;75.30
66598;DHT22;57424;53.128;6.406;2022-11-13T01:21:35;20.10;75.30
66598;DHT22;57424;53.128;6.406;2022-11-13T01:24:01;20.00;75.70
66598;DHT22;57424;53.128;6.406;2022-11-13T01:26:28;20.00;75.70
66598;DHT22;57424;53.128;6.406;2022-11-13T01:28:55;20.00;75.80
66598;DHT22;57424;53.128;6.406;2022-11-13T01:31:25;20.00;75.80
66598;DHT22;57424;53.128;6.406;2022-11-13T01:33:51;20.10;75.90
66598;DHT22;57424;53.128;6.406;2022-11-13T01:36:22;20.00;76.00
66598;DHT22;57424;53.128;6.406;2022-11-13T01:38:48;20.00;76.10
66598;DHT22;57424;53.128;6.406;2022-11-13T01:41:25;20.10;76.20
66598;DHT22;57424;53.128;6.406;2022-11-13T01:43:52;20.10;76.10
66598;DHT22;57424;53.128;6.406;2022-11-13T01:48:49;20.00;76.20
66598;DHT22;57424;53.128;6.406;2022-11-13T01:51:40;20.00;76.30
66598;DHT22;57424;53.128;6.406;2022-11-13T01:54:11;20.00;76.30
66598;DHT22;57424;53.128;6.406;2022-11-13T01:56:39;19.90;76.30
66598;DHT22;57424;53.128;6.406;2022-11-13T01:59:12;19.90;76.40
66598;DHT22;57424;53.128;6.406;2022-11-13T02:01:38;19.90;76.40
66598;DHT22;57424;53.128;6.406;2022-11-13T02:04:03;19.90;76.50
66598;DHT22;57424;53.128;6.406;2022-11-13T02:06:39;20.00;76.50
66598;DHT22;57424;53.128;6.406;2022-11-13T02:09:07;19.90;76.60
66598;DHT22;57424;53.128;6.406;2022-11-13T02:11:34;19.90;76.60
66598;DHT22;57424;53.128;6.406;2022-11-13T02:14:01;20.00;76.70
66598;DHT22;57424;53.128;6.406;2022-11-13T02:16:29;20.00;76.80
66598;DHT22;57424;53.128;6.406;2022-11-13T02:18:55;20.00;77.10
66598;DHT22;57424;53.128;6.406;2022-11-13T02:21:41;19.90;77.30
66598;DHT22;57424;53.128;6.406;2022-11-13T02:24:14;20.00;77.30
66598;DHT22;57424;53.128;6.406;2022-11-13T02:26:41;19.90;77.30
66598;DHT22;57424;53.128;6.406;2022-11-13T02:29:07;19.90;78.00
66598;DHT22;57424;53.128;6.406;2022-11-13T02:31:32;20.00;77.60
66598;DHT22;57424;53.128;6.406;2022-11-13T02:34:01;19.90;77.60
66598;DHT22;57424;53.128;6.406;2022-11-13T02:36:27;19.90;77.70
66598;DHT22;57424;53.128;6.406;2022-11-13T02:38:54;19.90;77.80
66598;DHT22;57424;53.128;6.406;2022-11-13T02:41:20;19.90;77.90
66598;DHT22;57424;53.128;6.406;2022-11-13T02:43:46;19.90;78.00
66598;DHT22;57424;53.128;6.406;2022-11-13T02:46:11;19.90;78.10
66598;DHT22;57424;53.128;6.406;2022-11-13T02:48:37;19.90;78.20
66598;DHT22;57424;53.128;6.406;2022-11-13T02:51:03;19.80;78.20
66598;DHT22;57424;53.128;6.406;2022-11-13T02:53:28;19.90;78.30
66598;DHT22;57424;53.128;6.406;2022-11-13T02:55:54;19.90;78.40
66598;DHT22;57424;53.128;6.406;2022-11-13T02:58:20;19.90;78.40
66598;DHT22;57424;53.128;6.406;2022-11-13T03:00:45;19.90;78.50
66598;DHT22;57424;53.128;6.406;2022-11-13T03:03:11;19.90;78.60
66598;DHT22;57424;53.128;6.406;2022-11-13T03:05:36;19.90;78.60
66598;DHT22;57424;53.128;6.406;2022-11-13T03:08:02;19.90;78.60
66598;DHT22;57424;53.128;6.406;2022-11-13T03:10:27;19.80;78.60
66598;DHT22;57424;53.128;6.406;2022-11-13T03:12:53;19.90;78.70
66598;DHT22;57424;53.128;6.406;2022-11-13T03:15:18;19.90;78.70
66598;DHT22;57424;53.128;6.406;2022-11-13T03:17:44;19.90;78.80
66598;DHT22;57424;53.128;6.406;2022-11-13T03:20:10;19.90;78.80
66598;DHT22;57424;53.128;6.406;2022-11-13T03:22:35;19.90;79.00
66598;DHT22;57424;53.128;6.406;2022-11-13T03:25:01;19.80;79.00
66598;DHT22;57424;53.128;6.406;2022-11-13T03:27:28;19.80;79.00
66598;DHT22;57424;53.128;6.406;2022-11-13T03:29:54;19.80;79.00
66598;DHT22;57424;53.128;6.406;2022-11-13T03:32:19;19.80;79.00
66598;DHT22;57424;53.128;6.406;2022-11-13T03:34:45;19.80;79.10
66598;DHT22;57424;53.128;6.406;2022-11-13T03:37:10;19.80;79.20
66598;DHT22;57424;53.128;6.406;2022-11-13T03:39:36;19.80;79.20
66598;DHT22;57424;53.128;6.406;2022-11-13T03:42:02;19.80;79.30
66598;DHT22;57424;53.128;6.406;2022-11-13T03:44:27;19.80;79.30
66598;DHT22;57424;53.128;6.406;2022-11-13T03:46:53;19.90;79.50
66598;DHT22;57424;53.128;6.406;2022-11-13T03:49:18;19.80;79.50
66598;DHT22;57424;53.128;6.406;2022-11-13T03:51:44;19.90;79.60
66598;DHT22;57424;53.128;6.406;2022-11-13T03:54:09;19.80;79.60
66598;DHT22;57424;53.128;6.406;2022-11-13T03:56:35;19.80;79.60
66598;DHT22;57424;53.128;6.406;2022-11-13T03:59:00;19.80;79.60
66598;DHT22;57424;53.128;6.406;2022-11-13T04:01:26;19.80;79.70
66598;DHT22;57424;53.128;6.406;2022-11-13T04:03:51;19.80;79.80
66598;DHT22;57424;53.128;6.406;2022-11-13T04:06:17;19.80;80.80
66598;DHT22;57424;53.128;6.406;2022-11-13T04:08:42;19.80;80.70
66598;DHT22;57424;53.128;6.406;2022-11-13T04:11:10;19.80;80.70
66598;DHT22;57424;53.128;6.406;2022-11-13T04:13:36;19.80;80.80
66598;DHT22;57424;53.128;6.406;2022-11-13T04:16:02;19.80;80.90
66598;DHT22;57424;53.128;6.406;2022-11-13T04:18:28;19.80;81.00
66598;DHT22;57424;53.128;6.406;2022-11-13T04:21:01;19.80;81.00
66598;DHT22;57424;53.128;6.406;2022-11-13T04:23:27;19.80;81.00
66598;DHT22;57424;53.128;6.406;2022-11-13T04:25:53;19.80;81.10
66598;DHT22;57424;53.128;6.406;2022-11-13T04:28:18;19.70;81.20
66598;DHT22;57424;53.128;6.406;2022-11-13T04:30:44;19.70;81.20
66598;DHT22;57424;53.128;6.406;2022-11-13T04:33:10;19.80;81.30
66598;DHT22;57424;53.128;6.406;2022-11-13T04:35:35;19.80;81.60
66598;DHT22;57424;53.128;6.406;2022-11-13T04:38:01;19.70;81.80
66598;DHT22;57424;53.128;6.406;2022-11-13T04:40:27;19.70;82.10
66598;DHT22;57424;53.128;6.406;2022-11-13T04:42:52;19.70;82.80
66598;DHT22;57424;53.128;6.406;2022-11-13T04:45:20;19.70;82.20
66598;DHT22;57424;53.128;6.406;2022-11-13T04:47:46;19.70;82.40
66598;DHT22;57424;53.128;6.406;2022-11-13T04:50:13;19.70;82.60
66598;DHT22;57424;53.128;6.406;2022-11-13T04:52:39;19.70;83.10
66598;DHT22;57424;53.128;6.406;2022-11-13T04:55:05;19.70;84.40
66598;DHT22;57424;53.128;6.406;2022-11-13T04:57:31;19.80;85.90
66598;DHT22;57424;53.128;6.406;2022-11-13T04:59:57;19.70;86.00
66598;DHT22;57424;53.128;6.406;2022-11-13T05:12:09;19.60;85.40
66598;DHT22;57424;53.128;6.406;2022-11-13T05:26:48;19.60;70.80
66598;DHT22;57424;53.128;6.406;2022-11-13T05:29:14;19.60;71.60
66598;DHT22;57424;53.128;6.406;2022-11-13T05:31:39;19.60;71.60
66598;DHT22;57424;53.128;6.406;2022-11-13T05:34:05;19.60;71.80
66598;DHT22;57424;53.128;6.406;2022-11-13T05:36:30;19.60;71.80
66598;DHT22;57424;53.128;6.406;2022-11-13T05:38:56;19.60;72.00
66598;DHT22;57424;53.128;6.406;2022-11-13T05:41:22;19.60;72.00
66598;DHT22;57424;53.128;6.406;2022-11-13T05:43:48;19.60;72.10
66598;DHT22;57424;53.128;6.406;2022-11-13T05:48:41;19.60;72.10
66598;DHT22;57424;53.128;6.406;2022-11-13T05:51:13;19.60;72.30
66598;DHT22;57424;53.128;6.406;2022-11-13T05:53:40;19.60;72.60
66598;DHT22;57424;53.128;6.406;2022-11-13T05:56:11;19.60;72.60
66598;DHT22;57424;53.128;6.406;2022-11-13T05:58:38;19.60;72.60
66598;DHT22;57424;53.128;6.406;2022-11-13T06:01:15;19.60;72.60
66598;DHT22;57424;53.128;6.406;2022-11-13T06:03:42;19.60;72.70
66598;DHT22;57424;53.128;6.406;2022-11-13T06:06:10;19.60;72.80
66598;DHT22;57424;53.128;6.406;2022-11-13T06:08:36;19.50;72.70
66598;DHT22;57424;53.128;6.406;2022-11-13T06:11:04;19.60;72.80
66598;DHT22;57424;53.128;6.406;2022-11-13T06:13:30;19.50;72.80
66598;DHT22;57424;53.128;6.406;2022-11-13T06:16:00;19.50;72.90
66598;DHT22;57424;53.128;6.406;2022-11-13T06:18:26;19.50;73.10
66598;DHT22;57424;53.128;6.406;2022-11-13T06:20:52;19.50;73.60
66598;DHT22;57424;53.128;6.406;2022-11-13T06:23:18;19.50;73.50
66598;DHT22;57424;53.128;6.406;2022-11-13T06:25:43;19.60;73.60
66598;DHT22;57424;53.128;6.406;2022-11-13T06:28:09;19.50;73.60
66598;DHT22;57424;53.128;6.406;2022-11-13T06:30:35;19.60;73.60
66598;DHT22;57424;53.128;6.406;2022-11-13T06:33:00;19.60;73.60
66598;DHT22;57424;53.128;6.406;2022-11-13T06:35:26;19.50;73.60
66598;DHT22;57424;53.128;6.406;2022-11-13T06:37:53;19.60;73.70
66598;DHT22;57424;53.128;6.406;2022-11-13T06:40:20;19.60;73.70
66598;DHT22;57424;53.128;6.406;2022-11-13T06:42:45;19.50;73.70
66598;DHT22;57424;53.128;6.406;2022-11-13T06:45:11;19.50;73.80
66598;DHT22;57424;53.128;6.406;2022-11-13T06:47:36;19.50;73.70
66598;DHT22;57424;53.128;6.406;2022-11-13T06:50:02;19.60;73.80
66598;DHT22;57424;53.128;6.406;2022-11-13T06:52:27;19.50;73.80
66598;DHT22;57424;53.128;6.406;2022-11-13T06:54:53;19.50;73.80
66598;DHT22;57424;53.128;6.406;2022-11-13T06:57:18;19.50;73.90
66598;DHT22;57424;53.128;6.406;2022-11-13T06:59:44;19.50;74.10
66598;DHT22;57424;53.128;6.406;2022-11-13T07:02:12;19.60;74.20
66598;DHT22;57424;53.128;6.406;2022-11-13T07:04:38;19.50;74.10
66598;DHT22;57424;53.128;6.406;2022-11-13T07:07:03;19.50;74.10
66598;DHT22;57424;53.128;6.406;2022-11-13T07:09:30;19.50;74.20
66598;DHT22;57424;53.128;6.406;2022-11-13T07:11:55;19.50;74.20
66598;DHT22;57424;53.128;6.406;2022-11-13T07:14:21;19.50;74.20
66598;DHT22;57424;53.128;6.406;2022-11-13T07:16:47;19.50;74.20
66598;DHT22;57424;53.128;6.406;2022-11-13T07:19:12;19.50;74.20
66598;DHT22;57424;53.128;6.406;2022-11-13T07:21:38;19.50;74.30
66598;DHT22;57424;53.128;6.406;2022-11-13T07:24:04;19.50;74.30
66598;DHT22;57424;53.128;6.406;2022-11-13T07:26:29;19.50;74.20
66598;DHT22;57424;53.128;6.406;2022-11-13T07:28:55;19.50;74.30
66598;DHT22;57424;53.128;6.406;2022-11-13T07:31:20;19.50;74.30
66598;DHT22;57424;53.128;6.406;2022-11-13T07:33:47;19.50;74.30
66598;DHT22;57424;53.128;6.406;2022-11-13T07:36:13;19.60;74.30
66598;DHT22;57424;53.128;6.406;2022-11-13T07:38:39;19.60;74.40
66598;DHT22;57424;53.128;6.406;2022-11-13T07:41:05;19.50;74.40
66598;DHT22;57424;53.128;6.406;2022-11-13T07:43:30;19.60;74.40
66598;DHT22;57424;53.128;6.406;2022-11-13T07:46:00;19.60;74.40
66598;DHT22;57424;53.128;6.406;2022-11-13T07:48:26;19.60;74.40
66598;DHT22;57424;53.128;6.406;2022-11-13T07:50:52;19.60;74.40
66598;DHT22;57424;53.128;6.406;2022-11-13T07:53:19;19.60;74.50
66598;DHT22;57424;53.128;6.406;2022-11-13T07:55:45;19.60;74.40
66598;DHT22;57424;53.128;6.406;2022-11-13T07:58:11;19.60;74.50
66598;DHT22;57424;53.128;6.406;2022-11-13T08:00:37;19.70;74.50
66598;DHT22;57424;53.128;6.406;2022-11-13T08:03:08;19.70;74.50
66598;DHT22;57424;53.128;6.406;2022-11-13T08:05:35;19.70;74.50
66598;DHT22;57424;53.128;6.406;2022-11-13T08:08:01;19.70;75.00
66598;DHT22;57424;53.128;6.406;2022-11-13T08:10:27;19.70;75.30
66598;DHT22;57424;53.128;6.406;2022-11-13T08:13:01;19.70;74.70
66598;DHT22;57424;53.128;6.406;2022-11-13T08:15:28;19.70;74.70
66598;DHT22;57424;53.128;6.406;2022-11-13T08:17:57;19.70;75.40
66598;DHT22;57424;53.128;6.406;2022-11-13T08:20:24;19.70;74.80
66598;DHT22;57424;53.128;6.406;2022-11-13T08:22:51;19.80;74.90
66598;DHT22;57424;53.128;6.406;2022-11-13T08:25:16;19.80;75.00
66598;DHT22;57424;53.128;6.406;2022-11-13T08:27:42;19.70;75.00
66598;DHT22;57424;53.128;6.406;2022-11-13T08:30:09;19.80;75.00
66598;DHT22;57424;53.128;6.406;2022-11-13T08:32:34;19.80;75.20
66598;DHT22;57424;53.128;6.406;2022-11-13T08:35:00;19.80;75.20
66598;DHT22;57424;53.128;6.406;2022-11-13T08:37:25;19.80;75.30
66598;DHT22;57424;53.128;6.406;2022-11-13T08:39:51;19.80;75.50
66598;DHT22;57424;53.128;6.406;2022-11-13T08:42:16;19.80;75.70
66598;DHT22;57424;53.128;6.406;2022-11-13T08:44:42;19.90;75.90
66598;DHT22;57424;53.128;6.406;2022-11-13T08:47:07;19.80;75.80
66598;DHT22;57424;53.128;6.406;2022-11-13T08:49:33;19.90;76.10
66598;DHT22;57424;53.128;6.406;2022-11-13T08:51:59;19.90;76.20
66598;DHT22;57424;53.128;6.406;2022-11-13T08:54:24;19.90;76.30
66598;DHT22;57424;53.128;6.406;2022-11-13T08:56:50;20.00;76.50
66598;DHT22;57424;53.128;6.406;2022-11-13T08:59:15;19.90;76.60
66598;DHT22;57424;53.128;6.406;2022-11-13T09:01:41;19.90;76.80
66598;DHT22;57424;53.128;6.406;2022-11-13T09:04:07;19.90;76.90
66598;DHT22;57424;53.128;6.406;2022-11-13T09:06:33;20.00;77.00
66598;DHT22;57424;53.128;6.406;2022-11-13T09:08:59;20.00;77.10
66598;DHT22;57424;53.128;6.406;2022-11-13T09:11:24;20.00;77.30
66598;DHT22;57424;53.128;6.406;2022-11-13T09:13:53;20.00;77.50
66598;DHT22;57424;53.128;6.406;2022-11-13T09:16:19;20.10;77.70
66598;DHT22;57424;53.128;6.406;2022-11-13T09:18:48;20.00;78.80
66598;DHT22;57424;53.128;6.406;2022-11-13T09:21:14;20.10;78.90
66598;DHT22;57424;53.128;6.406;2022-11-13T09:23:40;20.10;79.00
66598;DHT22;57424;53.128;6.406;2022-11-13T09:26:05;20.10;79.00
66598;DHT22;57424;53.128;6.406;2022-11-13T09:28:31;20.20;79.10
66598;DHT22;57424;53.128;6.406;2022-11-13T09:30:57;20.20;79.20
66598;DHT22;57424;53.128;6.406;2022-11-13T09:33:23;20.30;79.30
66598;DHT22;57424;53.128;6.406;2022-11-13T09:35:48;20.20;79.30
66598;DHT22;57424;53.128;6.406;2022-11-13T09:38:14;20.30;79.50
66598;DHT22;57424;53.128;6.406;2022-11-13T09:41:11;20.30;79.60
66598;DHT22;57424;53.128;6.406;2022-11-13T09:46:34;20.30;79.60
66598;DHT22;57424;53.128;6.406;2022-11-13T09:49:15;20.40;79.80
66598;DHT22;57424;53.128;6.406;2022-11-13T09:52:00;20.40;79.70
66598;DHT22;57424;53.128;6.406;2022-11-13T09:54:27;20.40;79.90
66598;DHT22;57424;53.128;6.406;2022-11-13T09:57:12;20.40;80.00
66598;DHT22;57424;53.128;6.406;2022-11-13T10:00:01;20.50;80.10
66598;DHT22;57424;53.128;6.406;2022-11-13T10:08:27;20.50;80.40
66598;DHT22;57424;53.128;6.406;2022-11-13T10:13:46;20.50;80.50
66598;DHT22;57424;53.128;6.406;2022-11-13T10:16:32;20.50;80.60
66598;DHT22;57424;53.128;6.406;2022-11-13T10:19:15;20.50;80.70
66598;DHT22;57424;53.128;6.406;2022-11-13T10:21:47;20.50;80.70
66598;DHT22;57424;53.128;6.406;2022-11-13T10:24:21;20.60;80.90
66598;DHT22;57424;53.128;6.406;2022-11-13T10:26:49;20.70;81.00
66598;DHT22;57424;53.128;6.406;2022-11-13T10:29:17;20.60;81.20
66598;DHT22;57424;53.128;6.406;2022-11-13T10:31:46;20.60;81.40
66598;DHT22;57424;53.128;6.406;2022-11-13T10:34:13;20.70;81.50
66598;DHT22;57424;53.128;6.406;2022-11-13T10:36:43;20.60;81.60
66598;DHT22;57424;53.128;6.406;2022-11-13T10:39:09;20.70;81.70
66598;DHT22;57424;53.128;6.406;2022-11-13T10:41:46;20.80;81.70
66598;DHT22;57424;53.128;6.406;2022-11-13T10:44:25;20.80;81.70
66598;DHT22;57424;53.128;6.406;2022-11-13T10:47:07;20.90;81.70
66598;DHT22;57424;53.128;6.406;2022-11-13T10:49:38;21.00;81.60
66598;DHT22;57424;53.128;6.406;2022-11-13T10:52:21;21.00;81.60
66598;DHT22;57424;53.128;6.406;2022-11-13T10:54:48;21.10;81.70
66598;DHT22;57424;53.128;6.406;2022-11-13T10:57:31;21.10;81.70
66598;DHT22;57424;53.128;6.406;2022-11-13T10:59:59;21.20;81.80
66598;DHT22;57424;53.128;6.406;2022-11-13T11:02:26;21.10;81.70
66598;DHT22;57424;53.128;6.406;2022-11-13T11:05:03;21.20;81.80
66598;DHT22;57424;53.128;6.406;2022-11-13T11:07:34;21.10;82.00
66598;DHT22;57424;53.128;6.406;2022-11-13T11:10:52;21.10;82.00
66598;DHT22;57424;53.128;6.406;2022-11-13T11:12:54;21.20;82.10
66598;DHT22;57424;53.128;6.406;2022-11-13T11:15:24;21.10;82.20
66598;DHT22;57424;53.128;6.406;2022-11-13T11:17:59;21.10;82.30
66598;DHT22;57424;53.128;6.406;2022-11-13T11:25:54;21.10;83.20
66598;DHT22;57424;53.128;6.406;2022-11-13T11:28:35;21.20;83.30
66598;DHT22;57424;53.128;6.406;2022-11-13T11:31:15;21.10;83.40
66598;DHT22;57424;53.128;6.406;2022-11-13T11:33:56;21.10;83.60
66598;DHT22;57424;53.128;6.406;2022-11-13T11:36:42;21.10;84.30
66598;DHT22;57424;53.128;6.406;2022-11-13T11:39:32;21.10;84.00
66598;DHT22;57424;53.128;6.406;2022-11-13T11:45:32;21.10;87.10
66598;DHT22;57424;53.128;6.406;2022-11-13T12:13:57;21.10;88.00
66598;DHT22;57424;53.128;6.406;2022-11-13T12:19:51;21.00;87.00
66598;DHT22;57424;53.128;6.406;2022-11-13T14:15:30;21.90;71.60
66598;DHT22;57424;53.128;6.406;2022-11-13T14:20:55;21.90;72.50
66598;DHT22;57424;53.128;6.406;2022-11-13T14:23:23;21.80;72.60
66598;DHT22;57424;53.128;6.406;2022-11-13T14:25:49;21.80;72.70
66598;DHT22;57424;53.128;6.406;2022-11-13T14:28:18;21.80;72.80
66598;DHT22;57424;53.128;6.406;2022-11-13T14:30:43;21.80;72.90
66598;DHT22;57424;53.128;6.406;2022-11-13T14:33:22;21.90;72.90
66598;DHT22;57424;53.128;6.406;2022-11-13T14:35:53;21.80;73.10
66598;DHT22;57424;53.128;6.406;2022-11-13T14:38:23;21.80;73.30
66598;DHT22;57424;53.128;6.406;2022-11-13T14:40:49;21.80;73.50
66598;DHT22;57424;53.128;6.406;2022-11-13T14:43:28;21.80;73.60
66598;DHT22;57424;53.128;6.406;2022-11-13T14:46:03;21.80;73.80
66598;DHT22;57424;53.128;6.406;2022-11-13T14:48:31;21.80;74.00
66598;DHT22;57424;53.128;6.406;2022-11-13T14:50:58;21.80;74.40
66598;DHT22;57424;53.128;6.406;2022-11-13T14:53:40;21.80;74.30
66598;DHT22;57424;53.128;6.406;2022-11-13T14:56:10;21.80;74.50
66598;DHT22;57424;53.128;6.406;2022-11-13T14:58:40;21.70;74.80
66598;DHT22;57424;53.128;6.406;2022-11-13T15:01:26;21.70;75.00
66598;DHT22;57424;53.128;6.406;2022-11-13T15:03:51;21.70;75.00
66598;DHT22;57424;53.128;6.406;2022-11-13T15:06:22;21.70;75.20
66598;DHT22;57424;53.128;6.406;2022-11-13T15:08:53;21.60;75.30
66598;DHT22;57424;53.128;6.406;2022-11-13T15:11:21;21.60;75.40
66598;DHT22;57424;53.128;6.406;2022-11-13T15:13:46;21.60;75.50
66598;DHT22;57424;53.128;6.406;2022-11-13T15:16:14;21.60;75.60
66598;DHT22;57424;53.128;6.406;2022-11-13T15:18:46;21.50;75.70
66598;DHT22;57424;53.128;6.406;2022-11-13T15:21:13;21.50;75.70
66598;DHT22;57424;53.128;6.406;2022-11-13T15:23:39;21.50;75.70
66598;DHT22;57424;53.128;6.406;2022-11-13T15:26:05;21.50;75.80
66598;DHT22;57424;53.128;6.406;2022-11-13T15:28:32;21.50;75.90
66598;DHT22;57424;53.128;6.406;2022-11-13T15:30:58;21.50;76.10
66598;DHT22;57424;53.128;6.406;2022-11-13T15:33:23;21.50;76.20
66598;DHT22;57424;53.128;6.406;2022-11-13T15:35:49;21.50;76.20
66598;DHT22;57424;53.128;6.406;2022-11-13T15:38:14;21.50;76.30
66598;DHT22;57424;53.128;6.406;2022-11-13T15:40:40;21.50;76.30
66598;DHT22;57424;53.128;6.406;2022-11-13T15:43:17;21.50;76.40
66598;DHT22;57424;53.128;6.406;2022-11-13T15:45:43;21.50;76.40
66598;DHT22;57424;53.128;6.406;2022-11-13T15:48:09;21.50;76.40
66598;DHT22;57424;53.128;6.406;2022-11-13T15:50:34;21.50;76.40
66598;DHT22;57424;53.128;6.406;2022-11-13T15:53:00;21.50;76.50
66598;DHT22;57424;53.128;6.406;2022-11-13T15:55:29;21.40;76.50
66598;DHT22;57424;53.128;6.406;2022-11-13T15:57:56;21.40;76.50
66598;DHT22;57424;53.128;6.406;2022-11-13T16:00:25;21.40;76.60
66598;DHT22;57424;53.128;6.406;2022-11-13T16:02:55;21.40;76.60
66598;DHT22;57424;53.128;6.406;2022-11-13T16:05:26;21.40;76.60
66598;DHT22;57424;53.128;6.406;2022-11-13T16:07:53;21.40;76.60
66598;DHT22;57424;53.128;6.406;2022-11-13T16:10:20;21.30;76.60
66598;DHT22;57424;53.128;6.406;2022-11-13T16:12:47;21.30;76.70
66598;DHT22;57424;53.128;6.406;2022-11-13T16:15:14;21.30;76.70
66598;DHT22;57424;53.128;6.406;2022-11-13T16:17:44;21.30;76.80
66598;DHT22;57424;53.128;6.406;2022-11-13T16:20:12;21.20;76.80
66598;DHT22;57424;53.128;6.406;2022-11-13T16:22:39;21.20;77.10
66598;DHT22;57424;53.128;6.406;2022-11-13T16:25:07;21.20;77.20
66598;DHT22;57424;53.128;6.406;2022-11-13T16:27:34;21.20;77.10
66598;DHT22;57424;53.128;6.406;2022-11-13T16:29:59;21.20;77.20
66598;DHT22;57424;53.128;6.406;2022-11-13T16:32:25;21.20;77.30
66598;DHT22;57424;53.128;6.406;2022-11-13T16:34:50;21.10;77.30
66598;DHT22;57424;53.128;6.406;2022-11-13T16:37:18;21.10;77.80
66598;DHT22;57424;53.128;6.406;2022-11-13T16:39:45;21.00;77.80
66598;DHT22;57424;53.128;6.406;2022-11-13T16:42:12;21.00;77.80
66598;DHT22;57424;53.128;6.406;2022-11-13T16:44:38;21.10;77.80
66598;DHT22;57424;53.128;6.406;2022-11-13T16:47:05;21.10;77.80
66598;DHT22;57424;53.128;6.406;2022-11-13T16:49:31;21.10;77.70
66598;DHT22;57424;53.128;6.406;2022-11-13T16:51:56;21.00;77.60
66598;DHT22;57424;53.128;6.406;2022-11-13T16:54:22;21.00;77.70
66598;DHT22;57424;53.128;6.406;2022-11-13T16:56:48;21.00;77.70
66598;DHT22;57424;53.128;6.406;2022-11-13T16:59:13;21.00;77.70
66598;DHT22;57424;53.128;6.406;2022-11-13T17:01:39;21.00;77.70
66598;DHT22;57424;53.128;6.406;2022-11-13T17:04:05;21.10;77.80
66598;DHT22;57424;53.128;6.406;2022-11-13T17:06:34;21.00;77.90
66598;DHT22;57424;53.128;6.406;2022-11-13T17:09:01;21.00;78.00
66598;DHT22;57424;53.128;6.406;2022-11-13T17:11:29;21.00;78.00
66598;DHT22;57424;53.128;6.406;2022-11-13T17:13:57;21.00;78.00
66598;DHT22;57424;53.128;6.406;2022-11-13T17:16:24;21.10;78.10
66598;DHT22;57424;53.128;6.406;2022-11-13T17:18:50;21.10;78.10
66598;DHT22;57424;53.128;6.406;2022-11-13T17:21:22;21.10;78.20
66598;DHT22;57424;53.128;6.406;2022-11-13T17:23:54;21.10;78.30
66598;DHT22;57424;53.128;6.406;2022-11-13T17:26:20;21.10;78.30
66598;DHT22;57424;53.128;6.406;2022-11-13T17:28:46;21.10;78.30
66598;DHT22;57424;53.128;6.406;2022-11-13T17:31:12;21.10;78.40
66598;DHT22;57424;53.128;6.406;2022-11-13T17:33:38;21.10;78.50
66598;DHT22;57424;53.128;6.406;2022-11-13T17:36:04;21.00;78.60
66598;DHT22;57424;53.128;6.406;2022-11-13T17:38:30;20.90;78.80
66598;DHT22;57424;53.128;6.406;2022-11-13T17:41:02;20.80;79.00
66598;DHT22;57424;53.128;6.406;2022-11-13T17:43:28;20.70;79.20
66598;DHT22;57424;53.128;6.406;2022-11-13T17:45:54;20.60;79.40
66598;DHT22;57424;53.128;6.406;2022-11-13T17:48:19;20.50;79.60
66598;DHT22;57424;53.128;6.406;2022-11-13T17:50:55;20.50;79.80
66598;DHT22;57424;53.128;6.406;2022-11-13T17:53:21;20.40;79.90
66598;DHT22;57424;53.128;6.406;2022-11-13T17:55:58;20.40;80.10
66598;DHT22;57424;53.128;6.406;2022-11-13T17:58:24;20.40;80.20
66598;DHT22;57424;53.128;6.406;2022-11-13T18:00:51;20.40;80.40
66598;DHT22;57424;53.128;6.406;2022-11-13T18:03:17;20.30;80.50
66598;DHT22;57424;53.128;6.406;2022-11-13T18:05:43;20.30;80.60
66598;DHT22;57424;53.128;6.406;2022-11-13T18:08:10;20.20;80.70
66598;DHT22;57424;53.128;6.406;2022-11-13T18:10:39;20.30;80.80
66598;DHT22;57424;53.128;6.406;2022-11-13T18:13:06;20.20;80.90
66598;DHT22;57424;53.128;6.406;2022-11-13T18:15:36;20.20;81.00
66598;DHT22;57424;53.128;6.406;2022-11-13T18:18:02;20.10;81.10
66598;DHT22;57424;53.128;6.406;2022-11-13T18:20:28;20.10;81.20
66598;DHT22;57424;53.128;6.406;2022-11-13T18:22:54;20.10;81.20
66598;DHT22;57424;53.128;6.406;2022-11-13T18:25:20;20.10;81.30
66598;DHT22;57424;53.128;6.406;2022-11-13T18:27:46;20.00;81.30
66598;DHT22;57424;53.128;6.406;2022-11-13T18:30:11;20.00;81.30
66598;DHT22;57424;53.128;6.406;2022-11-13T18:32:37;19.90;81.30
66598;DHT22;57424;53.128;6.406;2022-11-13T18:35:03;19.90;81.50
66598;DHT22;57424;53.128;6.406;2022-11-13T18:37:29;19.90;81.70
66598;DHT22;57424;53.128;6.406;2022-11-13T18:39:55;19.80;81.80
66598;DHT22;57424;53.128;6.406;2022-11-13T18:42:22;19.80;82.80
66598;DHT22;57424;53.128;6.406;2022-11-13T18:44:48;19.80;82.40
66598;DHT22;57424;53.128;6.406;2022-11-13T18:47:13;19.80;82.90